sensor_id;sensor_type;location;lat;lon;timestamp;P1;durP1;ratioP1;P2;durP2;ratioP2
33104;SDS011;19476;51.448;6.674;2022-10-16T00:01:17;3.58;;;1.30;;
33104;SDS011;19476;51.448;6.674;2022-10-16T00:03:45;3.08;;;1.23;;
33104;SDS011;19476;51.448;6.674;2022-10-16T00:06:12;2.80;;;1.20;;
33104;SDS011;19476;51.448;6.674;2022-10-16T00:08:39;2.58;;;1.20;;
33104;SDS011;19476;51.448;6.674;2022-10-16T00:11:09;3.38;;;1.65;;
33104;SDS011;19476;51.448;6.674;2022-10-16T00:13:38;2.00;;;1.10;;
33104;SDS011;19476;51.448;6.674;2022-10-16T00:16:06;2.90;;;1.30;;
33104;SDS011;19476;51.448;6.674;2022-10-16T00:18:33;3.00;;;1.25;;
33104;SDS011;19476;51.448;6.674;2022-10-16T00:21:06;2.40;;;1.13;;
33104;SDS011;19476;51.448;6.674;2022-10-16T00:23:37;2.50;;;1.17;;
33104;SDS011;19476;51.448;6.674;2022-10-16T00:26:04;4.07;;;1.30;;
33104;SDS011;19476;51.448;6.674;2022-10-16T00:28:35;1.95;;;1.20;;
33104;SDS011;19476;51.448;6.674;2022-10-16T00:31:04;2.35;;;1.30;;
33104;SDS011;19476;51.448;6.674;2022-10-16T00:33:35;2.30;;;1.05;;
33104;SDS011;19476;51.448;6.674;2022-10-16T00:36:03;2.90;;;1.30;;
33104;SDS011;19476;51.448;6.674;2022-10-16T00:38:30;2.78;;;1.30;;
33104;SDS011;19476;51.448;6.674;2022-10-16T00:40:56;3.20;;;1.58;;
33104;SDS011;19476;51.448;6.674;2022-10-16T00:49:15;2.38;;;1.13;;
33104;SDS011;19476;51.448;6.674;2022-10-16T00:51:47;2.30;;;0.93;;
33104;SDS011;19476;51.448;6.674;2022-10-16T00:54:21;2.53;;;1.27;;
33104;SDS011;19476;51.448;6.674;2022-10-16T00:56:50;3.10;;;0.95;;
33104;SDS011;19476;51.448;6.674;2022-10-16T00:59:20;2.83;;;1.10;;
33104;SDS011;19476;51.448;6.674;2022-10-16T01:01:52;2.03;;;0.90;;
33104;SDS011;19476;51.448;6.674;2022-10-16T01:04:18;1.98;;;1.00;;
33104;SDS011;19476;51.448;6.674;2022-10-16T01:12:46;2.58;;;0.90;;
33104;SDS011;19476;51.448;6.674;2022-10-16T01:17:51;2.35;;;1.10;;
33104;SDS011;19476;51.448;6.674;2022-10-16T01:31:27;2.75;;;1.00;;
33104;SDS011;19476;51.448;6.674;2022-10-16T01:33:59;1.63;;;1.00;;
33104;SDS011;19476;51.448;6.674;2022-10-16T01:36:32;2.20;;;0.85;;
33104;SDS011;19476;51.448;6.674;2022-10-16T01:39:05;1.58;;;1.00;;
33104;SDS011;19476;51.448;6.674;2022-10-16T01:41:35;1.67;;;0.90;;
33104;SDS011;19476;51.448;6.674;2022-10-16T01:44:08;3.10;;;0.88;;
33104;SDS011;19476;51.448;6.674;2022-10-16T01:46:36;3.03;;;0.80;;
33104;SDS011;19476;51.448;6.674;2022-10-16T01:49:04;1.55;;;0.80;;
33104;SDS011;19476;51.448;6.674;2022-10-16T01:51:34;1.83;;;0.70;;
33104;SDS011;19476;51.448;6.674;2022-10-16T01:54:01;1.67;;;0.70;;
33104;SDS011;19476;51.448;6.674;2022-10-16T01:56:30;0.82;;;0.50;;
33104;SDS011;19476;51.448;6.674;2022-10-16T01:58:59;2.20;;;0.70;;
33104;SDS011;19476;51.448;6.674;2022-10-16T02:01:35;1.65;;;0.80;;
33104;SDS011;19476;51.448;6.674;2022-10-16T02:04:07;1.92;;;0.85;;
33104;SDS011;19476;51.448;6.674;2022-10-16T02:06:53;2.03;;;0.98;;
33104;SDS011;19476;51.448;6.674;2022-10-16T02:09:19;2.40;;;0.95;;
33104;SDS011;19476;51.448;6.674;2022-10-16T02:11:45;3.17;;;0.80;;
33104;SDS011;19476;51.448;6.674;2022-10-16T02:14:12;2.70;;;1.02;;
33104;SDS011;19476;51.448;6.674;2022-10-16T02:16:39;1.42;;;0.70;;
33104;SDS011;19476;51.448;6.674;2022-10-16T02:19:08;1.13;;;0.52;;
33104;SDS011;19476;51.448;6.674;2022-10-16T02:21:38;1.25;;;0.60;;
33104;SDS011;19476;51.448;6.674;2022-10-16T02:26:49;1.17;;;0.68;;
33104;SDS011;19476;51.448;6.674;2022-10-16T02:29:40;1.50;;;0.80;;
33104;SDS011;19476;51.448;6.674;2022-10-16T02:32:13;1.75;;;0.73;;
33104;SDS011;19476;51.448;6.674;2022-10-16T02:34:46;1.35;;;0.68;;
33104;SDS011;19476;51.448;6.674;2022-10-16T02:37:14;2.35;;;0.93;;
33104;SDS011;19476;51.448;6.674;2022-10-16T02:39:42;1.38;;;0.77;;
33104;SDS011;19476;51.448;6.674;2022-10-16T02:42:12;2.00;;;0.75;;
33104;SDS011;19476;51.448;6.674;2022-10-16T02:44:39;1.58;;;0.80;;
33104;SDS011;19476;51.448;6.674;2022-10-16T02:47:05;1.25;;;0.65;;
33104;SDS011;19476;51.448;6.674;2022-10-16T02:49:31;2.17;;;0.60;;
33104;SDS011;19476;51.448;6.674;2022-10-16T02:51:56;1.48;;;0.77;;
33104;SDS011;19476;51.448;6.674;2022-10-16T02:54:22;1.65;;;0.63;;
33104;SDS011;19476;51.448;6.674;2022-10-16T02:56:48;3.28;;;0.82;;
33104;SDS011;19476;51.448;6.674;2022-10-16T02:59:15;1.38;;;0.63;;
33104;SDS011;19476;51.448;6.674;2022-10-16T03:01:40;1.77;;;0.80;;
33104;SDS011;19476;51.448;6.674;2022-10-16T03:04:06;1.55;;;0.77;;
33104;SDS011;19476;51.448;6.674;2022-10-16T03:06:32;2.15;;;0.50;;
33104;SDS011;19476;51.448;6.674;2022-10-16T03:08:58;1.30;;;0.60;;
33104;SDS011;19476;51.448;6.674;2022-10-16T03:11:24;1.15;;;0.40;;
33104;SDS011;19476;51.448;6.674;2022-10-16T03:13:50;0.88;;;0.40;;
33104;SDS011;19476;51.448;6.674;2022-10-16T03:16:15;2.28;;;0.60;;
33104;SDS011;19476;51.448;6.674;2022-10-16T03:18:41;1.67;;;0.60;;
33104;SDS011;19476;51.448;6.674;2022-10-16T03:21:07;1.13;;;0.50;;
33104;SDS011;19476;51.448;6.674;2022-10-16T03:23:33;0.77;;;0.40;;
33104;SDS011;19476;51.448;6.674;2022-10-16T03:25:58;1.98;;;0.50;;
33104;SDS011;19476;51.448;6.674;2022-10-16T03:28:24;0.73;;;0.40;;
33104;SDS011;19476;51.448;6.674;2022-10-16T03:30:50;2.15;;;0.60;;
33104;SDS011;19476;51.448;6.674;2022-10-16T03:33:16;9.52;;;0.60;;
33104;SDS011;19476;51.448;6.674;2022-10-16T03:35:42;1.50;;;0.60;;
33104;SDS011;19476;51.448;6.674;2022-10-16T03:38:07;1.63;;;0.60;;
33104;SDS011;19476;51.448;6.674;2022-10-16T03:40:33;1.00;;;0.40;;
33104;SDS011;19476;51.448;6.674;2022-10-16T03:42:59;1.40;;;0.40;;
33104;SDS011;19476;51.448;6.674;2022-10-16T03:45:25;0.90;;;0.50;;
33104;SDS011;19476;51.448;6.674;2022-10-16T03:47:52;1.17;;;0.63;;
33104;SDS011;19476;51.448;6.674;2022-10-16T03:50:18;0.82;;;0.35;;
33104;SDS011;19476;51.448;6.674;2022-10-16T03:52:44;1.58;;;0.43;;
33104;SDS011;19476;51.448;6.674;2022-10-16T03:55:09;2.15;;;0.50;;
33104;SDS011;19476;51.448;6.674;2022-10-16T03:57:35;1.40;;;0.50;;
33104;SDS011;19476;51.448;6.674;2022-10-16T04:00:01;0.95;;;0.40;;
33104;SDS011;19476;51.448;6.674;2022-10-16T04:02:27;1.02;;;0.50;;
33104;SDS011;19476;51.448;6.674;2022-10-16T04:04:53;1.02;;;0.52;;
33104;SDS011;19476;51.448;6.674;2022-10-16T04:07:19;1.15;;;0.40;;
33104;SDS011;19476;51.448;6.674;2022-10-16T04:09:45;1.58;;;0.60;;
33104;SDS011;19476;51.448;6.674;2022-10-16T04:12:11;0.95;;;0.43;;
33104;SDS011;19476;51.448;6.674;2022-10-16T04:14:36;1.42;;;0.47;;
33104;SDS011;19476;51.448;6.674;2022-10-16T04:17:02;0.93;;;0.50;;
33104;SDS011;19476;51.448;6.674;2022-10-16T04:19:28;1.77;;;0.60;;
33104;SDS011;19476;51.448;6.674;2022-10-16T04:21:55;1.65;;;0.50;;
33104;SDS011;19476;51.448;6.674;2022-10-16T04:24:21;1.50;;;0.30;;
33104;SDS011;19476;51.448;6.674;2022-10-16T04:26:46;2.63;;;0.47;;
33104;SDS011;19476;51.448;6.674;2022-10-16T04:29:12;1.00;;;0.43;;
33104;SDS011;19476;51.448;6.674;2022-10-16T04:31:38;1.27;;;0.45;;
33104;SDS011;19476;51.448;6.674;2022-10-16T04:34:04;1.48;;;0.55;;
33104;SDS011;19476;51.448;6.674;2022-10-16T04:36:30;1.30;;;0.40;;
33104;SDS011;19476;51.448;6.674;2022-10-16T04:38:55;2.58;;;0.50;;
33104;SDS011;19476;51.448;6.674;2022-10-16T04:41:21;1.17;;;0.68;;
33104;SDS011;19476;51.448;6.674;2022-10-16T04:43:47;2.30;;;0.45;;
33104;SDS011;19476;51.448;6.674;2022-10-16T04:46:13;1.05;;;0.45;;
33104;SDS011;19476;51.448;6.674;2022-10-16T04:48:39;1.23;;;0.77;;
33104;SDS011;19476;51.448;6.674;2022-10-16T04:51:05;1.88;;;0.60;;
33104;SDS011;19476;51.448;6.674;2022-10-16T04:53:30;1.52;;;0.60;;
33104;SDS011;19476;51.448;6.674;2022-10-16T04:55:56;1.23;;;0.40;;
33104;SDS011;19476;51.448;6.674;2022-10-16T04:58:22;0.50;;;0.30;;
33104;SDS011;19476;51.448;6.674;2022-10-16T05:00:48;1.45;;;0.60;;
33104;SDS011;19476;51.448;6.674;2022-10-16T05:03:14;0.75;;;0.40;;
33104;SDS011;19476;51.448;6.674;2022-10-16T05:05:43;1.02;;;0.50;;
33104;SDS011;19476;51.448;6.674;2022-10-16T05:10:37;3.63;;;0.85;;
33104;SDS011;19476;51.448;6.674;2022-10-16T05:13:02;0.50;;;0.40;;
33104;SDS011;19476;51.448;6.674;2022-10-16T05:15:29;1.50;;;0.60;;
33104;SDS011;19476;51.448;6.674;2022-10-16T05:17:55;1.08;;;0.40;;
33104;SDS011;19476;51.448;6.674;2022-10-16T05:20:21;1.05;;;0.40;;
33104;SDS011;19476;51.448;6.674;2022-10-16T05:22:48;0.70;;;0.47;;
33104;SDS011;19476;51.448;6.674;2022-10-16T05:25:14;1.50;;;0.50;;
33104;SDS011;19476;51.448;6.674;2022-10-16T05:27:40;0.73;;;0.40;;
33104;SDS011;19476;51.448;6.674;2022-10-16T05:30:06;1.27;;;0.43;;
33104;SDS011;19476;51.448;6.674;2022-10-16T05:32:32;0.95;;;0.50;;
33104;SDS011;19476;51.448;6.674;2022-10-16T05:34:58;2.35;;;0.60;;
33104;SDS011;19476;51.448;6.674;2022-10-16T05:37:25;0.77;;;0.40;;
33104;SDS011;19476;51.448;6.674;2022-10-16T05:39:52;1.27;;;0.43;;
33104;SDS011;19476;51.448;6.674;2022-10-16T05:42:18;0.52;;;0.30;;
33104;SDS011;19476;51.448;6.674;2022-10-16T05:44:45;2.05;;;0.60;;
33104;SDS011;19476;51.448;6.674;2022-10-16T05:47:12;1.70;;;0.40;;
33104;SDS011;19476;51.448;6.674;2022-10-16T05:49:39;0.60;;;0.40;;
33104;SDS011;19476;51.448;6.674;2022-10-16T05:52:05;0.63;;;0.40;;
33104;SDS011;19476;51.448;6.674;2022-10-16T05:54:31;0.73;;;0.50;;
33104;SDS011;19476;51.448;6.674;2022-10-16T05:56:57;0.90;;;0.70;;
33104;SDS011;19476;51.448;6.674;2022-10-16T05:59:23;1.40;;;0.38;;
33104;SDS011;19476;51.448;6.674;2022-10-16T06:01:49;0.98;;;0.50;;
33104;SDS011;19476;51.448;6.674;2022-10-16T06:04:14;1.67;;;0.65;;
33104;SDS011;19476;51.448;6.674;2022-10-16T06:06:40;4.30;;;0.68;;
33104;SDS011;19476;51.448;6.674;2022-10-16T06:09:06;1.25;;;0.57;;
33104;SDS011;19476;51.448;6.674;2022-10-16T06:11:32;2.65;;;0.75;;
33104;SDS011;19476;51.448;6.674;2022-10-16T06:13:59;2.17;;;0.68;;
33104;SDS011;19476;51.448;6.674;2022-10-16T06:16:28;2.63;;;0.90;;
33104;SDS011;19476;51.448;6.674;2022-10-16T06:18:54;1.45;;;0.52;;
33104;SDS011;19476;51.448;6.674;2022-10-16T06:21:21;2.33;;;0.60;;
33104;SDS011;19476;51.448;6.674;2022-10-16T06:23:52;1.02;;;0.60;;
33104;SDS011;19476;51.448;6.674;2022-10-16T06:26:23;1.38;;;0.68;;
33104;SDS011;19476;51.448;6.674;2022-10-16T06:28:51;1.35;;;0.70;;
33104;SDS011;19476;51.448;6.674;2022-10-16T06:31:19;1.27;;;0.70;;
33104;SDS011;19476;51.448;6.674;2022-10-16T06:33:44;1.95;;;0.52;;
33104;SDS011;19476;51.448;6.674;2022-10-16T06:36:13;1.00;;;0.60;;
33104;SDS011;19476;51.448;6.674;2022-10-16T06:38:40;1.60;;;0.60;;
33104;SDS011;19476;51.448;6.674;2022-10-16T06:41:07;1.45;;;0.75;;
33104;SDS011;19476;51.448;6.674;2022-10-16T06:43:36;1.58;;;0.75;;
33104;SDS011;19476;51.448;6.674;2022-10-16T06:46:02;1.25;;;0.73;;
33104;SDS011;19476;51.448;6.674;2022-10-16T06:48:32;1.25;;;0.68;;
33104;SDS011;19476;51.448;6.674;2022-10-16T06:53:26;2.05;;;0.77;;
33104;SDS011;19476;51.448;6.674;2022-10-16T06:55:53;2.25;;;0.70;;
33104;SDS011;19476;51.448;6.674;2022-10-16T06:58:19;2.65;;;0.85;;
33104;SDS011;19476;51.448;6.674;2022-10-16T07:00:44;2.63;;;0.75;;
33104;SDS011;19476;51.448;6.674;2022-10-16T07:16:09;2.40;;;1.13;;
33104;SDS011;19476;51.448;6.674;2022-10-16T07:18:38;2.72;;;1.20;;
33104;SDS011;19476;51.448;6.674;2022-10-16T07:23:35;1.27;;;0.75;;
33104;SDS011;19476;51.448;6.674;2022-10-16T07:26:02;2.67;;;0.93;;
33104;SDS011;19476;51.448;6.674;2022-10-16T07:28:28;2.53;;;0.70;;
33104;SDS011;19476;51.448;6.674;2022-10-16T07:30:54;1.83;;;0.80;;
33104;SDS011;19476;51.448;6.674;2022-10-16T07:33:20;1.60;;;0.80;;
33104;SDS011;19476;51.448;6.674;2022-10-16T07:35:53;1.50;;;0.70;;
33104;SDS011;19476;51.448;6.674;2022-10-16T07:38:19;2.60;;;0.80;;
33104;SDS011;19476;51.448;6.674;2022-10-16T07:40:46;1.25;;;0.60;;
33104;SDS011;19476;51.448;6.674;2022-10-16T07:43:13;2.00;;;0.93;;
33104;SDS011;19476;51.448;6.674;2022-10-16T07:45:48;2.22;;;0.73;;
33104;SDS011;19476;51.448;6.674;2022-10-16T07:48:15;2.78;;;1.00;;
33104;SDS011;19476;51.448;6.674;2022-10-16T07:50:43;1.75;;;0.90;;
33104;SDS011;19476;51.448;6.674;2022-10-16T07:53:10;3.88;;;1.10;;
33104;SDS011;19476;51.448;6.674;2022-10-16T07:55:37;2.35;;;1.00;;
33104;SDS011;19476;51.448;6.674;2022-10-16T07:58:03;1.70;;;0.80;;
33104;SDS011;19476;51.448;6.674;2022-10-16T08:00:30;3.25;;;1.00;;
33104;SDS011;19476;51.448;6.674;2022-10-16T08:02:56;1.55;;;0.90;;
33104;SDS011;19476;51.448;6.674;2022-10-16T08:05:26;1.42;;;0.80;;
33104;SDS011;19476;51.448;6.674;2022-10-16T08:07:56;1.05;;;0.75;;
33104;SDS011;19476;51.448;6.674;2022-10-16T08:10:23;1.50;;;0.80;;
33104;SDS011;19476;51.448;6.674;2022-10-16T08:12:50;1.63;;;0.90;;
33104;SDS011;19476;51.448;6.674;2022-10-16T08:15:16;1.00;;;0.80;;
33104;SDS011;19476;51.448;6.674;2022-10-16T08:17:42;1.60;;;1.00;;
33104;SDS011;19476;51.448;6.674;2022-10-16T08:20:09;1.13;;;0.65;;
33104;SDS011;19476;51.448;6.674;2022-10-16T08:22:35;3.80;;;1.25;;
33104;SDS011;19476;51.448;6.674;2022-10-16T08:25:01;1.65;;;0.95;;
33104;SDS011;19476;51.448;6.674;2022-10-16T08:27:33;1.75;;;0.90;;
33104;SDS011;19476;51.448;6.674;2022-10-16T08:29:59;1.75;;;0.80;;
33104;SDS011;19476;51.448;6.674;2022-10-16T08:32:25;2.83;;;0.70;;
33104;SDS011;19476;51.448;6.674;2022-10-16T08:34:50;2.40;;;0.88;;
33104;SDS011;19476;51.448;6.674;2022-10-16T08:37:16;2.42;;;0.70;;
33104;SDS011;19476;51.448;6.674;2022-10-16T08:39:42;1.52;;;0.90;;
33104;SDS011;19476;51.448;6.674;2022-10-16T08:50:14;1.15;;;0.50;;
33104;SDS011;19476;51.448;6.674;2022-10-16T08:52:53;1.13;;;0.50;;
33104;SDS011;19476;51.448;6.674;2022-10-16T08:58:14;1.08;;;0.55;;
33104;SDS011;19476;51.448;6.674;2022-10-16T09:00:42;1.50;;;0.68;;
33104;SDS011;19476;51.448;6.674;2022-10-16T09:11:17;1.33;;;0.68;;
33104;SDS011;19476;51.448;6.674;2022-10-16T09:16:35;1.75;;;0.70;;
33104;SDS011;19476;51.448;6.674;2022-10-16T09:21:50;3.38;;;0.63;;
33104;SDS011;19476;51.448;6.674;2022-10-16T09:24:19;1.40;;;0.57;;
33104;SDS011;19476;51.448;6.674;2022-10-16T09:26:47;1.05;;;0.50;;
33104;SDS011;19476;51.448;6.674;2022-10-16T09:29:13;1.48;;;0.50;;
33104;SDS011;19476;51.448;6.674;2022-10-16T09:31:40;2.50;;;0.63;;
33104;SDS011;19476;51.448;6.674;2022-10-16T09:34:12;4.38;;;0.93;;
33104;SDS011;19476;51.448;6.674;2022-10-16T09:36:54;1.00;;;0.50;;
33104;SDS011;19476;51.448;6.674;2022-10-16T09:39:23;2.63;;;0.80;;
33104;SDS011;19476;51.448;6.674;2022-10-16T09:41:50;1.52;;;0.60;;
33104;SDS011;19476;51.448;6.674;2022-10-16T09:44:29;2.38;;;0.70;;
33104;SDS011;19476;51.448;6.674;2022-10-16T09:49:38;2.05;;;0.60;;
33104;SDS011;19476;51.448;6.674;2022-10-16T09:52:11;1.58;;;0.70;;
33104;SDS011;19476;51.448;6.674;2022-10-16T09:54:48;1.42;;;0.52;;
33104;SDS011;19476;51.448;6.674;2022-10-16T09:57:15;1.05;;;0.57;;
33104;SDS011;19476;51.448;6.674;2022-10-16T09:59:47;5.60;;;0.98;;
33104;SDS011;19476;51.448;6.674;2022-10-16T10:02:15;1.42;;;0.68;;
33104;SDS011;19476;51.448;6.674;2022-10-16T10:04:50;1.85;;;0.65;;
33104;SDS011;19476;51.448;6.674;2022-10-16T10:07:28;2.33;;;0.50;;
33104;SDS011;19476;51.448;6.674;2022-10-16T10:10:00;1.88;;;0.52;;
33104;SDS011;19476;51.448;6.674;2022-10-16T10:12:29;1.67;;;0.50;;
33104;SDS011;19476;51.448;6.674;2022-10-16T10:15:05;1.75;;;0.43;;
33104;SDS011;19476;51.448;6.674;2022-10-16T10:17:45;0.77;;;0.40;;
33104;SDS011;19476;51.448;6.674;2022-10-16T10:23:24;1.88;;;0.70;;
33104;SDS011;19476;51.448;6.674;2022-10-16T10:25:59;2.25;;;0.47;;
33104;SDS011;19476;51.448;6.674;2022-10-16T10:31:31;1.77;;;0.55;;
33104;SDS011;19476;51.448;6.674;2022-10-16T10:37:04;2.05;;;0.50;;
33104;SDS011;19476;51.448;6.674;2022-10-16T10:39:38;2.10;;;0.60;;
33104;SDS011;19476;51.448;6.674;2022-10-16T10:50:58;2.75;;;0.75;;
33104;SDS011;19476;51.448;6.674;2022-10-16T10:56:41;2.42;;;0.60;;
33104;SDS011;19476;51.448;6.674;2022-10-16T11:02:31;1.35;;;0.57;;
33104;SDS011;19476;51.448;6.674;2022-10-16T11:05:35;1.77;;;0.50;;
33104;SDS011;19476;51.448;6.674;2022-10-16T11:07:54;1.10;;;0.68;;
33104;SDS011;19476;51.448;6.674;2022-10-16T11:10:28;1.23;;;0.40;;
33104;SDS011;19476;51.448;6.674;2022-10-16T11:13:10;0.68;;;0.30;;
33104;SDS011;19476;51.448;6.674;2022-10-16T11:16:00;1.25;;;0.70;;
33104;SDS011;19476;51.448;6.674;2022-10-16T11:21:18;2.03;;;0.40;;
33104;SDS011;19476;51.448;6.674;2022-10-16T11:23:59;0.88;;;0.35;;
33104;SDS011;19476;51.448;6.674;2022-10-16T11:26:31;1.38;;;0.40;;
33104;SDS011;19476;51.448;6.674;2022-10-16T11:29:00;1.38;;;0.40;;
33104;SDS011;19476;51.448;6.674;2022-10-16T11:34:12;1.00;;;0.40;;
33104;SDS011;19476;51.448;6.674;2022-10-16T11:36:50;2.33;;;0.50;;
33104;SDS011;19476;51.448;6.674;2022-10-16T11:41:55;0.82;;;0.40;;
33104;SDS011;19476;51.448;6.674;2022-10-16T11:50:04;1.15;;;0.50;;
33104;SDS011;19476;51.448;6.674;2022-10-16T11:55:36;2.22;;;0.50;;
33104;SDS011;19476;51.448;6.674;2022-10-16T11:58:09;2.10;;;0.65;;
33104;SDS011;19476;51.448;6.674;2022-10-16T12:03:25;1.52;;;0.50;;
33104;SDS011;19476;51.448;6.674;2022-10-16T12:08:36;1.90;;;0.60;;
33104;SDS011;19476;51.448;6.674;2022-10-16T12:11:07;1.83;;;0.60;;
33104;SDS011;19476;51.448;6.674;2022-10-16T12:13:38;1.92;;;0.60;;
33104;SDS011;19476;51.448;6.674;2022-10-16T12:18:41;1.63;;;0.60;;
33104;SDS011;19476;51.448;6.674;2022-10-16T12:21:09;1.58;;;0.60;;
33104;SDS011;19476;51.448;6.674;2022-10-16T12:23:54;1.10;;;0.50;;
33104;SDS011;19476;51.448;6.674;2022-10-16T12:26:24;0.90;;;0.47;;
33104;SDS011;19476;51.448;6.674;2022-10-16T12:28:53;2.35;;;0.57;;
33104;SDS011;19476;51.448;6.674;2022-10-16T12:31:20;2.58;;;0.52;;
33104;SDS011;19476;51.448;6.674;2022-10-16T12:33:59;0.85;;;0.50;;
33104;SDS011;19476;51.448;6.674;2022-10-16T12:36:32;1.42;;;0.50;;
33104;SDS011;19476;51.448;6.674;2022-10-16T12:38:59;1.80;;;0.57;;
33104;SDS011;19476;51.448;6.674;2022-10-16T12:43:56;0.50;;;0.45;;
33104;SDS011;19476;51.448;6.674;2022-10-16T12:49:19;2.67;;;0.57;;
33104;SDS011;19476;51.448;6.674;2022-10-16T12:51:55;1.75;;;0.50;;
33104;SDS011;19476;51.448;6.674;2022-10-16T12:59:53;1.05;;;0.50;;
33104;SDS011;19476;51.448;6.674;2022-10-16T13:11:04;1.02;;;0.40;;
33104;SDS011;19476;51.448;6.674;2022-10-16T13:16:37;1.13;;;0.35;;
33104;SDS011;19476;51.448;6.674;2022-10-16T13:22:17;1.83;;;0.50;;
33104;SDS011;19476;51.448;6.674;2022-10-16T13:27:59;1.83;;;0.50;;
33104;SDS011;19476;51.448;6.674;2022-10-16T13:30:32;1.17;;;0.40;;
33104;SDS011;19476;51.448;6.674;2022-10-16T13:33:07;1.15;;;0.30;;
33104;SDS011;19476;51.448;6.674;2022-10-16T13:35:53;1.52;;;0.50;;
33104;SDS011;19476;51.448;6.674;2022-10-16T13:38:21;1.83;;;0.40;;
33104;SDS011;19476;51.448;6.674;2022-10-16T13:40:56;1.23;;;0.50;;
33104;SDS011;19476;51.448;6.674;2022-10-16T13:46:03;0.70;;;0.40;;
33104;SDS011;19476;51.448;6.674;2022-10-16T13:48:32;0.98;;;0.60;;
33104;SDS011;19476;51.448;6.674;2022-10-16T13:51:03;1.35;;;0.50;;
33104;SDS011;19476;51.448;6.674;2022-10-16T13:53:43;0.82;;;0.45;;
33104;SDS011;19476;51.448;6.674;2022-10-16T13:56:13;1.73;;;0.68;;
33104;SDS011;19476;51.448;6.674;2022-10-16T13:58:40;1.10;;;0.50;;
33104;SDS011;19476;51.448;6.674;2022-10-16T14:01:17;0.68;;;0.40;;
33104;SDS011;19476;51.448;6.674;2022-10-16T14:03:50;1.05;;;0.40;;
33104;SDS011;19476;51.448;6.674;2022-10-16T14:06:18;2.60;;;0.52;;
33104;SDS011;19476;51.448;6.674;2022-10-16T14:08:50;2.28;;;0.60;;
33104;SDS011;19476;51.448;6.674;2022-10-16T14:11:49;1.88;;;0.70;;
33104;SDS011;19476;51.448;6.674;2022-10-16T14:14:20;1.58;;;0.50;;
33104;SDS011;19476;51.448;6.674;2022-10-16T14:16:47;2.78;;;0.70;;
33104;SDS011;19476;51.448;6.674;2022-10-16T14:19:26;1.08;;;0.50;;
33104;SDS011;19476;51.448;6.674;2022-10-16T14:21:54;2.63;;;0.60;;
33104;SDS011;19476;51.448;6.674;2022-10-16T14:24:26;1.50;;;0.60;;
33104;SDS011;19476;51.448;6.674;2022-10-16T14:26:52;2.00;;;0.50;;
33104;SDS011;19476;51.448;6.674;2022-10-16T14:29:21;1.45;;;0.40;;
33104;SDS011;19476;51.448;6.674;2022-10-16T14:31:55;1.35;;;0.50;;
33104;SDS011;19476;51.448;6.674;2022-10-16T14:34:27;1.35;;;0.60;;
33104;SDS011;19476;51.448;6.674;2022-10-16T14:36:59;3.13;;;0.80;;
33104;SDS011;19476;51.448;6.674;2022-10-16T14:39:31;1.85;;;0.60;;
33104;SDS011;19476;51.448;6.674;2022-10-16T14:41:58;0.93;;;0.38;;
33104;SDS011;19476;51.448;6.674;2022-10-16T14:44:33;1.70;;;0.45;;
33104;SDS011;19476;51.448;6.674;2022-10-16T14:47:06;1.25;;;0.50;;
33104;SDS011;19476;51.448;6.674;2022-10-16T14:49:34;1.63;;;0.40;;
33104;SDS011;19476;51.448;6.674;2022-10-16T14:52:00;0.95;;;0.60;;
33104;SDS011;19476;51.448;6.674;2022-10-16T14:54:27;1.75;;;0.50;;
33104;SDS011;19476;51.448;6.674;2022-10-16T14:56:56;3.78;;;0.60;;
33104;SDS011;19476;51.448;6.674;2022-10-16T15:04:50;4.78;;;1.33;;
33104;SDS011;19476;51.448;6.674;2022-10-16T15:07:16;2.90;;;1.10;;
33104;SDS011;19476;51.448;6.674;2022-10-16T15:09:42;2.53;;;1.00;;
33104;SDS011;19476;51.448;6.674;2022-10-16T15:12:08;6.43;;;1.00;;
33104;SDS011;19476;51.448;6.674;2022-10-16T15:14:33;1.77;;;0.75;;
33104;SDS011;19476;51.448;6.674;2022-10-16T15:16:59;1.20;;;0.70;;
33104;SDS011;19476;51.448;6.674;2022-10-16T15:19:25;2.25;;;0.70;;
33104;SDS011;19476;51.448;6.674;2022-10-16T15:21:51;1.77;;;0.70;;
33104;SDS011;19476;51.448;6.674;2022-10-16T15:24:17;1.38;;;0.60;;
33104;SDS011;19476;51.448;6.674;2022-10-16T15:26:43;1.77;;;0.80;;
33104;SDS011;19476;51.448;6.674;2022-10-16T15:29:11;0.85;;;0.50;;
33104;SDS011;19476;51.448;6.674;2022-10-16T15:31:37;1.70;;;0.80;;
33104;SDS011;19476;51.448;6.674;2022-10-16T15:34:03;1.58;;;0.70;;
33104;SDS011;19476;51.448;6.674;2022-10-16T15:36:34;4.53;;;0.90;;
33104;SDS011;19476;51.448;6.674;2022-10-16T15:39:23;1.27;;;0.93;;
33104;SDS011;19476;51.448;6.674;2022-10-16T15:41:48;2.45;;;0.85;;
33104;SDS011;19476;51.448;6.674;2022-10-16T15:44:18;1.92;;;1.13;;
33104;SDS011;19476;51.448;6.674;2022-10-16T15:46:46;2.97;;;0.80;;
33104;SDS011;19476;51.448;6.674;2022-10-16T15:49:12;2.95;;;0.90;;
33104;SDS011;19476;51.448;6.674;2022-10-16T15:51:38;3.92;;;0.68;;
33104;SDS011;19476;51.448;6.674;2022-10-16T15:54:05;1.20;;;0.52;;
33104;SDS011;19476;51.448;6.674;2022-10-16T15:56:32;1.67;;;0.63;;
33104;SDS011;19476;51.448;6.674;2022-10-16T15:58:58;4.72;;;0.90;;
33104;SDS011;19476;51.448;6.674;2022-10-16T16:01:26;2.92;;;0.70;;
33104;SDS011;19476;51.448;6.674;2022-10-16T16:03:55;1.67;;;0.85;;
33104;SDS011;19476;51.448;6.674;2022-10-16T16:06:21;1.67;;;0.90;;
33104;SDS011;19476;51.448;6.674;2022-10-16T16:08:49;2.83;;;0.95;;
33104;SDS011;19476;51.448;6.674;2022-10-16T16:11:15;1.90;;;1.08;;
33104;SDS011;19476;51.448;6.674;2022-10-16T16:13:42;1.33;;;0.85;;
33104;SDS011;19476;51.448;6.674;2022-10-16T16:16:09;2.63;;;0.95;;
33104;SDS011;19476;51.448;6.674;2022-10-16T16:18:37;2.35;;;1.33;;
33104;SDS011;19476;51.448;6.674;2022-10-16T16:21:03;3.30;;;1.63;;
33104;SDS011;19476;51.448;6.674;2022-10-16T16:23:30;3.65;;;1.42;;
33104;SDS011;19476;51.448;6.674;2022-10-16T16:28:34;3.85;;;1.27;;
33104;SDS011;19476;51.448;6.674;2022-10-16T16:31:01;4.75;;;1.95;;
33104;SDS011;19476;51.448;6.674;2022-10-16T16:33:27;5.60;;;1.73;;
33104;SDS011;19476;51.448;6.674;2022-10-16T16:35:56;6.25;;;2.42;;
33104;SDS011;19476;51.448;6.674;2022-10-16T16:38:27;4.35;;;2.28;;
33104;SDS011;19476;51.448;6.674;2022-10-16T16:40:53;4.00;;;2.05;;
33104;SDS011;19476;51.448;6.674;2022-10-16T16:43:22;5.55;;;2.15;;
33104;SDS011;19476;51.448;6.674;2022-10-16T16:45:52;4.35;;;1.83;;
33104;SDS011;19476;51.448;6.674;2022-10-16T16:48:18;5.30;;;2.40;;
33104;SDS011;19476;51.448;6.674;2022-10-16T16:50:45;5.30;;;2.47;;
33104;SDS011;19476;51.448;6.674;2022-10-16T16:53:11;4.82;;;2.42;;
33104;SDS011;19476;51.448;6.674;2022-10-16T16:55:36;4.35;;;2.45;;
33104;SDS011;19476;51.448;6.674;2022-10-16T16:58:02;7.10;;;2.60;;
33104;SDS011;19476;51.448;6.674;2022-10-16T17:00:29;4.63;;;2.70;;
33104;SDS011;19476;51.448;6.674;2022-10-16T17:02:56;4.95;;;2.40;;
33104;SDS011;19476;51.448;6.674;2022-10-16T17:05:22;4.50;;;2.13;;
33104;SDS011;19476;51.448;6.674;2022-10-16T17:07:48;4.05;;;2.03;;
33104;SDS011;19476;51.448;6.674;2022-10-16T17:10:14;3.60;;;2.08;;
33104;SDS011;19476;51.448;6.674;2022-10-16T17:12:40;4.18;;;2.22;;
33104;SDS011;19476;51.448;6.674;2022-10-16T17:15:06;4.18;;;2.30;;
33104;SDS011;19476;51.448;6.674;2022-10-16T17:17:32;3.95;;;1.88;;
33104;SDS011;19476;51.448;6.674;2022-10-16T17:19:58;3.38;;;1.80;;
33104;SDS011;19476;51.448;6.674;2022-10-16T17:22:24;5.63;;;1.70;;
33104;SDS011;19476;51.448;6.674;2022-10-16T17:24:49;2.63;;;1.58;;
33104;SDS011;19476;51.448;6.674;2022-10-16T17:27:16;4.45;;;1.70;;
33104;SDS011;19476;51.448;6.674;2022-10-16T17:29:43;2.33;;;1.08;;
33104;SDS011;19476;51.448;6.674;2022-10-16T17:32:09;2.95;;;1.42;;
33104;SDS011;19476;51.448;6.674;2022-10-16T17:34:35;4.13;;;1.50;;
33104;SDS011;19476;51.448;6.674;2022-10-16T17:37:01;3.10;;;1.20;;
33104;SDS011;19476;51.448;6.674;2022-10-16T17:39:28;2.05;;;1.00;;
33104;SDS011;19476;51.448;6.674;2022-10-16T17:41:54;3.72;;;1.10;;